ADDS METAR Data INFO
IDs: Format: Raw Decoded Include TAF

Data at: 0213 UTC 17 Aug 2018

PANW 170156Z AUTO 19003KT 10SM BKN070 BKN090 OVC110 14/09 A2998 RMK AO2 RAE11 SLP171 P0000 T01390094
PANW 170056Z AUTO 15004KT 10SM -RA BKN060 OVC070 14/08 A2999 RMK AO2 RAB29 SLP172 P0000 T01390083
PANW 162356Z AUTO 00000KT 10SM SCT050 BKN085 BKN100 14/07 A2999 RMK AO2 RAB14E31 SLP172 P0000 60000 T01440067 10161 20111 56005
PANW 162256Z AUTO 07004KT 10SM BKN036 OVC046 15/06 A2999 RMK AO2 SLP173 T01500061
PANW 162156Z AUTO VRB03KT 10SM FEW030 OVC070 14/08 A3000 RMK AO2 SLP175 T01440078
PANW 161956Z AUTO 00000KT 10SM BKN095 13/07 A3000 RMK AO2 SLP178 T01280072
PANW 161856Z AUTO 00000KT 9SM BKN065 OVC095 12/08 A3000 RMK AO2 SLP178 T01170078
PANW 161756Z AUTO 00000KT 10SM OVC065 11/07 A3000 RMK AO2 SLP177 T01110072 10117 20078 50003
PANW 161656Z AUTO 00000KT 10SM SCT036 BKN046 OVC065 11/08 A3000 RMK AO2 SLP177 T01110078
PANW 161556Z AUTO 31003KT 10SM BKN048 OVC065 08/07 A3000 RMK AO2 SLP175 T00830072
PANW 161456Z AUTO 31004KT 10SM BKN047 BKN055 OVC065 08/07 A2999 RMK AO2 SLP174 T00830067 50002
PANW 161356Z AUTO 28006KT 10SM OVC065 08/07 A3000 RMK AO2 SLP175 T00830072
PANW 161256Z AUTO 00000KT 10SM OVC060 08/07 A2999 RMK AO2 SLP174 T00830072
PANW 161156Z AUTO 29003KT 10SM OVC046 09/07 A2999 RMK AO2 SLP172 T00940072 10117 20089 53002
PANW 161056Z AUTO 33003KT 10SM OVC046 09/07 A2998 RMK AO2 SLP171 T00890072
PANW 160956Z AUTO 29004KT 10SM BKN050 OVC060 09/08 A2998 RMK AO2 SLP171 T00940078
PANW 160856Z AUTO 29005KT 10SM OVC050 09/08 A2998 RMK AO2 SLP171 T00940078 401280056 52004
PANW 160756Z AUTO 25006KT 10SM OVC065 09/08 A2998 RMK AO2 SLP170 T00940083
PANW 160656Z AUTO 22004KT 10SM OVC060 11/08 A2997 RMK AO2 SLP168 T01060083
PANW 160556Z AUTO 17003KT 10SM OVC060 12/09 A2997 RMK AO2 SLP167 60000 T01170094 10128 20117 53005
PANW 160456Z AUTO 15004KT 10SM OVC055 12/08 A2996 RMK AO2 SLP163 T01220078
PANW 160356Z AUTO 16004KT 10SM FEW031 OVC060 12/08 A2996 RMK AO2 SLP162 T01220083
PANW 160256Z AUTO 13003KT 10SM SCT030 SCT037 OVC060 13/08 A2995 RMK AO2 SLP162 60000 T01280083 56002
PANW 160232Z AUTO 11003KT 10SM SCT019 OVC055 12/08 A2996 RMK AO2
PANW 160216Z AUTO 13004KT 10SM BKN019 BKN034 OVC046 12/08 A2996 RMK AO2
PANW 160156Z AUTO VRB03KT 10SM FEW025 SCT031 OVC046 12/08 A2996 RMK AO2 RAE04 SLP164 P0000 T01220083
PANW 160104Z AUTO 00000KT 10SM BKN030 OVC042 13/07 A2996 RMK AO2 RAE04 P0000
PANW 160056Z AUTO 25004KT 10SM -RA BKN029 OVC035 13/07 A2996 RMK AO2 RAB53 SLP162 P0000 T01280072
PANW 160041Z AUTO VRB04KT 10SM BKN029 BKN035 OVC055 13/07 A2996 RMK AO2
PANW 152356Z AUTO 13004KT 10SM SCT027 OVC049 13/07 A2996 RMK AO2 SLP165 T01280067 10128 20078 50000
PANW 152256Z AUTO 20003KT 10SM FEW020 OVC047 12/07 A2997 RMK AO2 SLP166 T01220067
PANW 152245Z AUTO 22006KT 10SM SCT022 OVC045 12/08 A2997 RMK AO2
PANW 152214Z AUTO 22005KT 10SM BKN022 BKN043 BKN100 12/07 A2997 RMK AO2
PANW 152156Z AUTO 19005KT 10SM FEW020 BKN041 BKN100 12/07 A2997 RMK AO2 SLP164 T01170072
PANW 152116Z AUTO 21005KT 10SM SCT017 OVC034 11/08 A2996 RMK AO2
PANW 152056Z AUTO 23009KT 10SM BKN017 BKN022 OVC029 11/08 A2996 RMK AO2 SLP163 T01060078 50000
PANW 152033Z AUTO VRB04KT 10SM BKN015 BKN023 OVC046 11/08 A2996 RMK AO2
PANW 152011Z AUTO 17004KT 10SM SCT011 SCT015 OVC046 10/08 A2996 RMK AO2
PANW 152008Z AUTO 17005KT 10SM SCT011 BKN014 OVC046 10/08 A2997 RMK AO2
PANW 151956Z AUTO 19005KT 10SM BKN009 BKN046 10/08 A2996 RMK AO2 CIG 009V014 SLP164 T01000083
PANW 151946Z AUTO 20004KT 10SM OVC009 10/08 A2996 RMK AO2 CIG 004V012
PANW 151912Z AUTO 11003KT 10SM OVC004 09/08 A2997 RMK AO2 CIG 003V007
PANW 151856Z AUTO 11004KT 10SM OVC002 08/08 A2997 RMK AO2 SLP166 T00830083
PANW 151756Z AUTO 11004KT 8SM OVC002 08/08 A2996 RMK AO2 SLP162 T00780078 10078 20056 53004
PANW 151727Z AUTO 17003KT 7SM OVC002 07/07 A2996 RMK AO2
PANW 151656Z AUTO 12005KT 8SM OVC004 07/07 A2996 RMK AO2 SLP163 T00720067
PANW 151646Z AUTO 11004KT 3SM BR BKN004 OVC055 07/07 A2996 RMK AO2
PANW 151640Z AUTO 14003KT 1 1/4SM BR BKN004 OVC055 07/07 A2996 RMK AO2
PANW 151638Z AUTO 00000KT 3/4SM BR BKN004 OVC055 07/07 A2996 RMK AO2
PANW 151615Z AUTO 00000KT M1/4SM FG BKN004 BKN010 OVC055 06/06 A2995 RMK AO2
PANW 151556Z AUTO 00000KT 1/4SM FG FEW002 BKN010 OVC055 06/06 A2995 RMK AO2 SLP161 T00610061
PANW 151548Z AUTO 16003KT 1/4SM FG SCT002 OVC010 06/06 A2995 RMK AO2
PANW 151513Z AUTO 19003KT M1/4SM FG BKN002 OVC055 06/06 A2995 RMK AO2
PANW 151504Z AUTO 19004KT 1/4SM FG SCT002 OVC055 06/06 A2995 RMK AO2
PANW 151456Z AUTO 20004KT 1/4SM FG OVC055 06/06 A2995 RMK AO2 SLP159 T00610056 56003
PANW 151439Z AUTO 19004KT 1/4SM FG FEW002 OVC055 06/06 A2995 RMK AO2
PANW 151423Z AUTO 21003KT 1/2SM FG SCT002 OVC055 06/06 A2995 RMK AO2